sensor_id;sensor_type;location;lat;lon;timestamp;P1;durP1;ratioP1;P2;durP2;ratioP2
52386;SDS011;38317;53.084;6.960;2022-08-21T00:01:50;3.10;;;1.52;;
52386;SDS011;38317;53.084;6.960;2022-08-21T00:04:16;6.10;;;2.20;;
52386;SDS011;38317;53.084;6.960;2022-08-21T00:06:42;5.75;;;2.05;;
52386;SDS011;38317;53.084;6.960;2022-08-21T00:09:08;6.53;;;2.10;;
52386;SDS011;38317;53.084;6.960;2022-08-21T00:11:35;4.30;;;1.92;;
52386;SDS011;38317;53.084;6.960;2022-08-21T00:14:03;4.55;;;2.15;;
52386;SDS011;38317;53.084;6.960;2022-08-21T00:16:31;3.80;;;1.98;;
52386;SDS011;38317;53.084;6.960;2022-08-21T00:18:57;5.15;;;1.98;;
52386;SDS011;38317;53.084;6.960;2022-08-21T00:21:23;5.35;;;2.28;;
52386;SDS011;38317;53.084;6.960;2022-08-21T00:23:50;5.38;;;2.38;;
52386;SDS011;38317;53.084;6.960;2022-08-21T00:26:16;6.60;;;2.25;;
52386;SDS011;38317;53.084;6.960;2022-08-21T00:28:42;6.93;;;2.10;;
52386;SDS011;38317;53.084;6.960;2022-08-21T00:31:10;3.25;;;1.70;;
52386;SDS011;38317;53.084;6.960;2022-08-21T00:33:36;3.47;;;1.88;;
52386;SDS011;38317;53.084;6.960;2022-08-21T00:36:03;4.75;;;2.30;;
52386;SDS011;38317;53.084;6.960;2022-08-21T00:38:28;4.00;;;2.00;;
52386;SDS011;38317;53.084;6.960;2022-08-21T00:40:59;9.75;;;2.30;;
52386;SDS011;38317;53.084;6.960;2022-08-21T00:45:55;4.30;;;2.05;;
52386;SDS011;38317;53.084;6.960;2022-08-21T00:48:22;3.83;;;2.00;;
52386;SDS011;38317;53.084;6.960;2022-08-21T00:53:29;6.18;;;2.00;;
52386;SDS011;38317;53.084;6.960;2022-08-21T00:55:56;5.13;;;1.90;;
52386;SDS011;38317;53.084;6.960;2022-08-21T00:58:23;4.18;;;1.73;;
52386;SDS011;38317;53.084;6.960;2022-08-21T01:00:51;4.18;;;2.08;;
52386;SDS011;38317;53.084;6.960;2022-08-21T01:03:19;3.35;;;1.90;;
52386;SDS011;38317;53.084;6.960;2022-08-21T01:05:47;5.03;;;2.08;;
52386;SDS011;38317;53.084;6.960;2022-08-21T01:08:13;5.65;;;2.55;;
52386;SDS011;38317;53.084;6.960;2022-08-21T01:10:42;6.65;;;2.20;;
52386;SDS011;38317;53.084;6.960;2022-08-21T01:13:09;5.03;;;1.98;;
52386;SDS011;38317;53.084;6.960;2022-08-21T01:15:38;6.75;;;2.22;;
52386;SDS011;38317;53.084;6.960;2022-08-21T01:18:08;7.28;;;2.50;;
52386;SDS011;38317;53.084;6.960;2022-08-21T01:20:36;5.25;;;2.80;;
52386;SDS011;38317;53.084;6.960;2022-08-21T01:23:04;6.15;;;3.03;;
52386;SDS011;38317;53.084;6.960;2022-08-21T01:25:31;6.20;;;3.28;;
52386;SDS011;38317;53.084;6.960;2022-08-21T01:27:58;6.43;;;3.15;;
52386;SDS011;38317;53.084;6.960;2022-08-21T01:30:29;6.93;;;3.75;;
52386;SDS011;38317;53.084;6.960;2022-08-21T01:32:59;9.23;;;4.40;;
52386;SDS011;38317;53.084;6.960;2022-08-21T01:35:24;6.85;;;3.75;;
52386;SDS011;38317;53.084;6.960;2022-08-21T01:37:50;6.97;;;4.10;;
52386;SDS011;38317;53.084;6.960;2022-08-21T01:40:17;9.75;;;4.47;;
52386;SDS011;38317;53.084;6.960;2022-08-21T01:42:44;6.88;;;3.72;;
52386;SDS011;38317;53.084;6.960;2022-08-21T01:45:11;6.50;;;3.55;;
52386;SDS011;38317;53.084;6.960;2022-08-21T01:47:38;8.13;;;3.40;;
52386;SDS011;38317;53.084;6.960;2022-08-21T01:50:05;7.03;;;3.15;;
52386;SDS011;38317;53.084;6.960;2022-08-21T01:52:32;8.48;;;3.20;;
52386;SDS011;38317;53.084;6.960;2022-08-21T01:54:58;6.18;;;2.90;;
52386;SDS011;38317;53.084;6.960;2022-08-21T01:57:23;4.68;;;2.67;;
52386;SDS011;38317;53.084;6.960;2022-08-21T01:59:50;5.50;;;2.58;;
52386;SDS011;38317;53.084;6.960;2022-08-21T02:02:16;5.60;;;2.55;;
52386;SDS011;38317;53.084;6.960;2022-08-21T02:04:42;5.32;;;2.35;;
52386;SDS011;38317;53.084;6.960;2022-08-21T02:07:07;5.50;;;2.30;;
52386;SDS011;38317;53.084;6.960;2022-08-21T02:09:34;4.60;;;1.92;;
52386;SDS011;38317;53.084;6.960;2022-08-21T02:12:00;6.53;;;2.05;;
52386;SDS011;38317;53.084;6.960;2022-08-21T02:14:25;5.10;;;2.17;;
52386;SDS011;38317;53.084;6.960;2022-08-21T02:16:51;4.43;;;2.13;;
52386;SDS011;38317;53.084;6.960;2022-08-21T02:19:18;5.07;;;1.92;;
52386;SDS011;38317;53.084;6.960;2022-08-21T02:21:43;6.32;;;2.47;;
52386;SDS011;38317;53.084;6.960;2022-08-21T02:24:10;4.57;;;2.10;;
52386;SDS011;38317;53.084;6.960;2022-08-21T02:26:36;5.75;;;2.33;;
52386;SDS011;38317;53.084;6.960;2022-08-21T02:29:03;4.57;;;2.08;;
52386;SDS011;38317;53.084;6.960;2022-08-21T02:31:30;4.63;;;1.88;;
52386;SDS011;38317;53.084;6.960;2022-08-21T02:33:56;4.75;;;1.83;;
52386;SDS011;38317;53.084;6.960;2022-08-21T02:36:22;4.03;;;1.95;;
52386;SDS011;38317;53.084;6.960;2022-08-21T02:38:48;5.88;;;1.85;;
52386;SDS011;38317;53.084;6.960;2022-08-21T02:41:15;4.05;;;1.73;;
52386;SDS011;38317;53.084;6.960;2022-08-21T02:43:44;3.65;;;1.70;;
52386;SDS011;38317;53.084;6.960;2022-08-21T02:46:11;2.88;;;1.50;;
52386;SDS011;38317;53.084;6.960;2022-08-21T02:48:38;4.68;;;1.70;;
52386;SDS011;38317;53.084;6.960;2022-08-21T02:51:15;4.78;;;1.75;;
52386;SDS011;38317;53.084;6.960;2022-08-21T02:53:43;3.65;;;1.45;;
52386;SDS011;38317;53.084;6.960;2022-08-21T02:56:11;5.90;;;2.10;;
52386;SDS011;38317;53.084;6.960;2022-08-21T02:58:40;4.03;;;1.63;;
52386;SDS011;38317;53.084;6.960;2022-08-21T03:01:14;4.57;;;1.98;;
52386;SDS011;38317;53.084;6.960;2022-08-21T03:03:41;4.80;;;1.48;;
52386;SDS011;38317;53.084;6.960;2022-08-21T03:06:09;4.93;;;2.00;;
52386;SDS011;38317;53.084;6.960;2022-08-21T03:08:37;5.70;;;1.80;;
52386;SDS011;38317;53.084;6.960;2022-08-21T03:11:03;5.20;;;1.80;;
52386;SDS011;38317;53.084;6.960;2022-08-21T03:13:29;3.92;;;1.92;;
52386;SDS011;38317;53.084;6.960;2022-08-21T03:15:55;4.28;;;1.90;;
52386;SDS011;38317;53.084;6.960;2022-08-21T03:18:21;4.93;;;2.00;;
52386;SDS011;38317;53.084;6.960;2022-08-21T03:20:47;4.18;;;2.10;;
52386;SDS011;38317;53.084;6.960;2022-08-21T03:23:13;7.03;;;2.45;;
52386;SDS011;38317;53.084;6.960;2022-08-21T03:25:40;4.50;;;2.30;;
52386;SDS011;38317;53.084;6.960;2022-08-21T03:28:08;5.90;;;2.75;;
52386;SDS011;38317;53.084;6.960;2022-08-21T03:30:37;5.68;;;2.72;;
52386;SDS011;38317;53.084;6.960;2022-08-21T03:33:03;5.72;;;2.92;;
52386;SDS011;38317;53.084;6.960;2022-08-21T03:35:29;6.30;;;2.70;;
52386;SDS011;38317;53.084;6.960;2022-08-21T03:37:55;5.18;;;2.58;;
52386;SDS011;38317;53.084;6.960;2022-08-21T03:40:21;5.10;;;2.85;;
52386;SDS011;38317;53.084;6.960;2022-08-21T03:42:49;5.53;;;3.00;;
52386;SDS011;38317;53.084;6.960;2022-08-21T03:45:16;7.15;;;3.20;;
52386;SDS011;38317;53.084;6.960;2022-08-21T03:47:59;6.43;;;3.15;;
52386;SDS011;38317;53.084;6.960;2022-08-21T03:50:27;7.47;;;3.22;;
52386;SDS011;38317;53.084;6.960;2022-08-21T03:52:56;8.85;;;3.42;;
52386;SDS011;38317;53.084;6.960;2022-08-21T03:55:22;7.35;;;3.65;;
52386;SDS011;38317;53.084;6.960;2022-08-21T03:57:49;8.43;;;3.53;;
52386;SDS011;38317;53.084;6.960;2022-08-21T04:00:15;4.13;;;2.88;;
52386;SDS011;38317;53.084;6.960;2022-08-21T04:02:43;6.85;;;3.17;;
52386;SDS011;38317;53.084;6.960;2022-08-21T04:05:10;5.43;;;3.13;;
52386;SDS011;38317;53.084;6.960;2022-08-21T04:07:37;7.13;;;3.03;;
52386;SDS011;38317;53.084;6.960;2022-08-21T04:10:04;6.72;;;2.83;;
52386;SDS011;38317;53.084;6.960;2022-08-21T04:12:31;7.90;;;3.10;;
52386;SDS011;38317;53.084;6.960;2022-08-21T04:14:57;5.20;;;2.85;;
52386;SDS011;38317;53.084;6.960;2022-08-21T04:17:23;6.00;;;2.92;;
52386;SDS011;38317;53.084;6.960;2022-08-21T04:19:49;6.03;;;2.65;;
52386;SDS011;38317;53.084;6.960;2022-08-21T04:22:15;7.07;;;3.13;;
52386;SDS011;38317;53.084;6.960;2022-08-21T04:24:41;6.10;;;2.90;;
52386;SDS011;38317;53.084;6.960;2022-08-21T04:27:07;5.60;;;2.78;;
52386;SDS011;38317;53.084;6.960;2022-08-21T04:29:33;4.90;;;2.70;;
52386;SDS011;38317;53.084;6.960;2022-08-21T04:31:59;5.55;;;2.92;;
52386;SDS011;38317;53.084;6.960;2022-08-21T04:34:25;5.45;;;2.97;;
52386;SDS011;38317;53.084;6.960;2022-08-21T04:36:50;6.13;;;2.83;;
52386;SDS011;38317;53.084;6.960;2022-08-21T04:39:16;7.05;;;3.15;;
52386;SDS011;38317;53.084;6.960;2022-08-21T04:41:42;6.63;;;2.80;;
52386;SDS011;38317;53.084;6.960;2022-08-21T04:44:08;7.95;;;3.10;;
52386;SDS011;38317;53.084;6.960;2022-08-21T04:46:34;6.03;;;2.50;;
52386;SDS011;38317;53.084;6.960;2022-08-21T04:49:00;6.60;;;2.95;;
52386;SDS011;38317;53.084;6.960;2022-08-21T04:51:27;8.05;;;3.35;;
52386;SDS011;38317;53.084;6.960;2022-08-21T04:53:58;6.85;;;3.15;;
52386;SDS011;38317;53.084;6.960;2022-08-21T04:56:33;5.78;;;2.83;;
52386;SDS011;38317;53.084;6.960;2022-08-21T04:59:11;4.97;;;2.60;;
52386;SDS011;38317;53.084;6.960;2022-08-21T05:01:41;6.50;;;2.78;;
52386;SDS011;38317;53.084;6.960;2022-08-21T05:04:09;6.82;;;2.95;;
52386;SDS011;38317;53.084;6.960;2022-08-21T05:06:37;8.10;;;3.28;;
52386;SDS011;38317;53.084;6.960;2022-08-21T05:09:07;7.22;;;2.72;;
52386;SDS011;38317;53.084;6.960;2022-08-21T05:11:34;6.40;;;2.97;;
52386;SDS011;38317;53.084;6.960;2022-08-21T05:14:02;5.65;;;2.90;;
52386;SDS011;38317;53.084;6.960;2022-08-21T05:16:28;6.43;;;2.78;;
52386;SDS011;38317;53.084;6.960;2022-08-21T05:18:54;4.97;;;2.72;;
52386;SDS011;38317;53.084;6.960;2022-08-21T05:21:20;6.93;;;2.80;;
52386;SDS011;38317;53.084;6.960;2022-08-21T05:23:47;6.40;;;3.17;;
52386;SDS011;38317;53.084;6.960;2022-08-21T05:26:13;4.72;;;2.65;;
52386;SDS011;38317;53.084;6.960;2022-08-21T05:28:39;6.60;;;3.22;;
52386;SDS011;38317;53.084;6.960;2022-08-21T05:31:04;8.43;;;3.17;;
52386;SDS011;38317;53.084;6.960;2022-08-21T05:33:30;7.97;;;3.42;;
52386;SDS011;38317;53.084;6.960;2022-08-21T05:35:56;7.22;;;3.35;;
52386;SDS011;38317;53.084;6.960;2022-08-21T05:38:23;6.85;;;3.20;;
52386;SDS011;38317;53.084;6.960;2022-08-21T05:40:52;7.30;;;3.30;;
52386;SDS011;38317;53.084;6.960;2022-08-21T05:43:18;7.30;;;3.60;;
52386;SDS011;38317;53.084;6.960;2022-08-21T05:45:43;5.45;;;3.20;;
52386;SDS011;38317;53.084;6.960;2022-08-21T05:48:11;6.45;;;3.22;;
52386;SDS011;38317;53.084;6.960;2022-08-21T05:50:37;7.35;;;3.00;;
52386;SDS011;38317;53.084;6.960;2022-08-21T05:53:03;5.13;;;3.15;;
52386;SDS011;38317;53.084;6.960;2022-08-21T05:55:30;5.97;;;2.97;;
52386;SDS011;38317;53.084;6.960;2022-08-21T05:57:55;7.78;;;3.30;;
52386;SDS011;38317;53.084;6.960;2022-08-21T06:00:21;5.78;;;3.00;;
52386;SDS011;38317;53.084;6.960;2022-08-21T06:02:48;5.65;;;2.92;;
52386;SDS011;38317;53.084;6.960;2022-08-21T06:05:15;5.80;;;2.58;;
52386;SDS011;38317;53.084;6.960;2022-08-21T06:07:42;5.15;;;2.95;;
52386;SDS011;38317;53.084;6.960;2022-08-21T06:10:08;7.13;;;2.92;;
52386;SDS011;38317;53.084;6.960;2022-08-21T06:12:34;5.43;;;2.55;;
52386;SDS011;38317;53.084;6.960;2022-08-21T06:15:00;6.05;;;2.60;;
52386;SDS011;38317;53.084;6.960;2022-08-21T06:17:26;5.78;;;2.90;;
52386;SDS011;38317;53.084;6.960;2022-08-21T06:19:52;8.05;;;3.35;;
52386;SDS011;38317;53.084;6.960;2022-08-21T06:22:19;7.35;;;3.22;;
52386;SDS011;38317;53.084;6.960;2022-08-21T06:24:45;6.28;;;3.22;;
52386;SDS011;38317;53.084;6.960;2022-08-21T06:27:11;7.28;;;3.15;;
52386;SDS011;38317;53.084;6.960;2022-08-21T06:29:38;7.75;;;3.63;;
52386;SDS011;38317;53.084;6.960;2022-08-21T06:32:04;6.93;;;3.33;;
52386;SDS011;38317;53.084;6.960;2022-08-21T06:34:35;6.05;;;3.20;;
52386;SDS011;38317;53.084;6.960;2022-08-21T06:37:03;6.43;;;3.13;;
52386;SDS011;38317;53.084;6.960;2022-08-21T06:39:29;8.23;;;3.47;;
52386;SDS011;38317;53.084;6.960;2022-08-21T06:41:56;7.93;;;3.30;;
52386;SDS011;38317;53.084;6.960;2022-08-21T06:44:22;5.90;;;3.58;;
52386;SDS011;38317;53.084;6.960;2022-08-21T06:46:47;8.38;;;4.00;;
52386;SDS011;38317;53.084;6.960;2022-08-21T06:49:13;7.30;;;3.17;;
52386;SDS011;38317;53.084;6.960;2022-08-21T06:51:40;7.13;;;3.35;;
52386;SDS011;38317;53.084;6.960;2022-08-21T06:54:05;5.13;;;2.72;;
52386;SDS011;38317;53.084;6.960;2022-08-21T06:56:32;6.25;;;3.13;;
52386;SDS011;38317;53.084;6.960;2022-08-21T06:59:00;7.88;;;3.20;;
52386;SDS011;38317;53.084;6.960;2022-08-21T07:01:26;9.15;;;3.15;;
52386;SDS011;38317;53.084;6.960;2022-08-21T07:03:52;6.93;;;3.00;;
52386;SDS011;38317;53.084;6.960;2022-08-21T07:06:18;7.57;;;3.05;;
52386;SDS011;38317;53.084;6.960;2022-08-21T07:08:44;7.28;;;2.90;;
52386;SDS011;38317;53.084;6.960;2022-08-21T07:11:17;5.10;;;2.80;;
52386;SDS011;38317;53.084;6.960;2022-08-21T07:13:45;8.95;;;3.28;;
52386;SDS011;38317;53.084;6.960;2022-08-21T07:16:11;6.95;;;3.17;;
52386;SDS011;38317;53.084;6.960;2022-08-21T07:18:37;7.95;;;3.13;;
52386;SDS011;38317;53.084;6.960;2022-08-21T07:21:03;6.22;;;2.58;;
52386;SDS011;38317;53.084;6.960;2022-08-21T07:23:33;6.68;;;2.60;;
52386;SDS011;38317;53.084;6.960;2022-08-21T07:26:02;7.28;;;2.50;;
52386;SDS011;38317;53.084;6.960;2022-08-21T07:28:28;6.32;;;2.50;;
52386;SDS011;38317;53.084;6.960;2022-08-21T07:30:57;9.52;;;2.40;;
52386;SDS011;38317;53.084;6.960;2022-08-21T07:33:24;7.20;;;3.00;;
52386;SDS011;38317;53.084;6.960;2022-08-21T07:35:51;9.05;;;2.80;;
52386;SDS011;38317;53.084;6.960;2022-08-21T07:38:18;7.45;;;2.63;;
52386;SDS011;38317;53.084;6.960;2022-08-21T07:40:44;7.55;;;2.75;;
52386;SDS011;38317;53.084;6.960;2022-08-21T07:43:11;5.18;;;2.20;;
52386;SDS011;38317;53.084;6.960;2022-08-21T07:45:37;4.70;;;1.80;;
52386;SDS011;38317;53.084;6.960;2022-08-21T07:48:04;4.95;;;1.67;;
52386;SDS011;38317;53.084;6.960;2022-08-21T07:50:30;7.38;;;2.13;;
52386;SDS011;38317;53.084;6.960;2022-08-21T07:52:56;5.25;;;1.70;;
52386;SDS011;38317;53.084;6.960;2022-08-21T07:55:22;4.15;;;1.67;;
52386;SDS011;38317;53.084;6.960;2022-08-21T07:57:48;5.18;;;1.88;;
52386;SDS011;38317;53.084;6.960;2022-08-21T08:00:16;5.10;;;1.30;;
52386;SDS011;38317;53.084;6.960;2022-08-21T08:02:45;5.15;;;1.35;;
52386;SDS011;38317;53.084;6.960;2022-08-21T08:05:14;4.97;;;1.42;;
52386;SDS011;38317;53.084;6.960;2022-08-21T08:07:41;5.93;;;1.80;;
52386;SDS011;38317;53.084;6.960;2022-08-21T08:10:08;5.80;;;1.30;;
52386;SDS011;38317;53.084;6.960;2022-08-21T08:12:35;5.82;;;1.30;;
52386;SDS011;38317;53.084;6.960;2022-08-21T08:15:05;4.22;;;1.30;;
52386;SDS011;38317;53.084;6.960;2022-08-21T08:17:33;6.07;;;1.55;;
52386;SDS011;38317;53.084;6.960;2022-08-21T08:19:59;5.63;;;1.30;;
52386;SDS011;38317;53.084;6.960;2022-08-21T08:22:26;8.07;;;1.55;;
52386;SDS011;38317;53.084;6.960;2022-08-21T08:24:52;6.93;;;1.38;;
52386;SDS011;38317;53.084;6.960;2022-08-21T08:27:19;3.78;;;0.90;;
52386;SDS011;38317;53.084;6.960;2022-08-21T08:29:45;6.28;;;1.30;;
52386;SDS011;38317;53.084;6.960;2022-08-21T08:32:11;8.50;;;1.40;;
52386;SDS011;38317;53.084;6.960;2022-08-21T08:34:37;7.53;;;1.10;;
52386;SDS011;38317;53.084;6.960;2022-08-21T08:37:06;4.95;;;1.50;;
52386;SDS011;38317;53.084;6.960;2022-08-21T08:39:34;5.47;;;1.08;;
52386;SDS011;38317;53.084;6.960;2022-08-21T08:44:28;3.75;;;0.98;;
52386;SDS011;38317;53.084;6.960;2022-08-21T08:46:55;6.82;;;1.20;;
52386;SDS011;38317;53.084;6.960;2022-08-21T08:49:23;5.68;;;1.20;;
52386;SDS011;38317;53.084;6.960;2022-08-21T08:52:20;2.58;;;0.80;;
52386;SDS011;38317;53.084;6.960;2022-08-21T08:57:39;3.90;;;1.10;;
52386;SDS011;38317;53.084;6.960;2022-08-21T09:02:41;3.15;;;0.95;;
52386;SDS011;38317;53.084;6.960;2022-08-21T09:10:56;4.25;;;1.00;;
52386;SDS011;38317;53.084;6.960;2022-08-21T09:19:32;3.85;;;1.00;;
52386;SDS011;38317;53.084;6.960;2022-08-21T09:22:19;4.68;;;0.95;;
52386;SDS011;38317;53.084;6.960;2022-08-21T09:27:18;4.22;;;0.90;;
52386;SDS011;38317;53.084;6.960;2022-08-21T09:29:48;2.13;;;0.73;;
52386;SDS011;38317;53.084;6.960;2022-08-21T09:35:05;4.53;;;1.20;;
52386;SDS011;38317;53.084;6.960;2022-08-21T09:37:44;3.80;;;0.95;;
52386;SDS011;38317;53.084;6.960;2022-08-21T09:40:26;3.72;;;1.40;;
52386;SDS011;38317;53.084;6.960;2022-08-21T09:43:03;3.05;;;0.88;;
52386;SDS011;38317;53.084;6.960;2022-08-21T09:45:36;4.50;;;1.15;;
52386;SDS011;38317;53.084;6.960;2022-08-21T09:48:09;6.53;;;1.08;;
52386;SDS011;38317;53.084;6.960;2022-08-21T09:50:44;4.53;;;1.02;;
52386;SDS011;38317;53.084;6.960;2022-08-21T09:53:28;3.40;;;0.90;;
52386;SDS011;38317;53.084;6.960;2022-08-21T09:55:57;4.05;;;0.93;;
52386;SDS011;38317;53.084;6.960;2022-08-21T09:58:48;4.38;;;0.95;;
52386;SDS011;38317;53.084;6.960;2022-08-21T10:01:20;7.28;;;1.70;;
52386;SDS011;38317;53.084;6.960;2022-08-21T10:06:25;3.03;;;0.73;;
52386;SDS011;38317;53.084;6.960;2022-08-21T10:11:53;5.55;;;0.88;;
52386;SDS011;38317;53.084;6.960;2022-08-21T10:17:07;4.45;;;0.70;;
52386;SDS011;38317;53.084;6.960;2022-08-21T10:25:02;2.80;;;0.80;;
52386;SDS011;38317;53.084;6.960;2022-08-21T10:28:00;5.82;;;1.00;;
52386;SDS011;38317;53.084;6.960;2022-08-21T10:33:42;5.05;;;0.95;;
52386;SDS011;38317;53.084;6.960;2022-08-21T10:36:33;3.55;;;0.90;;
52386;SDS011;38317;53.084;6.960;2022-08-21T10:42:37;5.22;;;0.73;;
52386;SDS011;38317;53.084;6.960;2022-08-21T10:47:46;2.88;;;0.80;;
52386;SDS011;38317;53.084;6.960;2022-08-21T10:55:33;2.92;;;0.75;;
52386;SDS011;38317;53.084;6.960;2022-08-21T10:58:07;2.13;;;0.45;;
52386;SDS011;38317;53.084;6.960;2022-08-21T11:00:48;3.00;;;0.50;;
52386;SDS011;38317;53.084;6.960;2022-08-21T11:06:24;2.72;;;0.80;;
52386;SDS011;38317;53.084;6.960;2022-08-21T11:08:57;3.72;;;0.70;;
52386;SDS011;38317;53.084;6.960;2022-08-21T11:11:31;4.47;;;0.68;;
52386;SDS011;38317;53.084;6.960;2022-08-21T11:14:49;7.43;;;0.73;;
52386;SDS011;38317;53.084;6.960;2022-08-21T11:16:58;3.45;;;1.00;;
52386;SDS011;38317;53.084;6.960;2022-08-21T11:19:32;4.38;;;0.60;;
52386;SDS011;38317;53.084;6.960;2022-08-21T11:22:06;3.05;;;0.90;;
52386;SDS011;38317;53.084;6.960;2022-08-21T11:24:57;4.45;;;0.80;;
52386;SDS011;38317;53.084;6.960;2022-08-21T11:29:54;3.03;;;0.60;;
52386;SDS011;38317;53.084;6.960;2022-08-21T11:43:40;2.58;;;0.55;;
52386;SDS011;38317;53.084;6.960;2022-08-21T11:51:41;1.33;;;0.50;;
52386;SDS011;38317;53.084;6.960;2022-08-21T11:54:21;2.88;;;0.43;;
52386;SDS011;38317;53.084;6.960;2022-08-21T11:57:02;3.83;;;0.90;;
52386;SDS011;38317;53.084;6.960;2022-08-21T11:59:41;2.53;;;0.55;;
52386;SDS011;38317;53.084;6.960;2022-08-21T12:02:13;1.48;;;0.40;;
52386;SDS011;38317;53.084;6.960;2022-08-21T12:04:53;3.47;;;0.50;;
52386;SDS011;38317;53.084;6.960;2022-08-21T12:07:59;3.60;;;0.60;;
52386;SDS011;38317;53.084;6.960;2022-08-21T12:10:30;3.28;;;0.60;;
52386;SDS011;38317;53.084;6.960;2022-08-21T12:13:08;1.23;;;0.50;;
52386;SDS011;38317;53.084;6.960;2022-08-21T12:16:08;4.07;;;0.70;;
52386;SDS011;38317;53.084;6.960;2022-08-21T12:18:40;2.33;;;0.50;;
52386;SDS011;38317;53.084;6.960;2022-08-21T12:26:31;1.83;;;0.40;;
52386;SDS011;38317;53.084;6.960;2022-08-21T12:31:53;4.45;;;0.60;;
52386;SDS011;38317;53.084;6.960;2022-08-21T12:34:47;4.40;;;0.55;;
52386;SDS011;38317;53.084;6.960;2022-08-21T12:37:15;3.33;;;0.60;;
52386;SDS011;38317;53.084;6.960;2022-08-21T12:39:47;3.53;;;0.68;;
52386;SDS011;38317;53.084;6.960;2022-08-21T12:42:20;4.57;;;0.70;;
52386;SDS011;38317;53.084;6.960;2022-08-21T12:44:59;3.03;;;0.60;;
52386;SDS011;38317;53.084;6.960;2022-08-21T12:47:48;2.92;;;0.50;;
52386;SDS011;38317;53.084;6.960;2022-08-21T12:50:24;2.10;;;0.65;;
52386;SDS011;38317;53.084;6.960;2022-08-21T12:53:06;3.20;;;0.90;;
52386;SDS011;38317;53.084;6.960;2022-08-21T12:55:35;3.25;;;0.60;;
52386;SDS011;38317;53.084;6.960;2022-08-21T12:58:15;1.80;;;0.45;;
52386;SDS011;38317;53.084;6.960;2022-08-21T13:00:44;2.72;;;0.65;;
52386;SDS011;38317;53.084;6.960;2022-08-21T13:03:14;3.80;;;0.77;;
52386;SDS011;38317;53.084;6.960;2022-08-21T13:05:41;0.82;;;0.40;;
52386;SDS011;38317;53.084;6.960;2022-08-21T13:08:07;3.72;;;0.50;;
52386;SDS011;38317;53.084;6.960;2022-08-21T13:10:37;1.25;;;0.40;;
52386;SDS011;38317;53.084;6.960;2022-08-21T13:13:07;2.90;;;0.40;;
52386;SDS011;38317;53.084;6.960;2022-08-21T13:15:44;2.20;;;0.43;;
52386;SDS011;38317;53.084;6.960;2022-08-21T13:18:19;2.53;;;0.60;;
52386;SDS011;38317;53.084;6.960;2022-08-21T13:20:48;2.47;;;0.52;;
52386;SDS011;38317;53.084;6.960;2022-08-21T13:23:32;1.58;;;0.50;;
52386;SDS011;38317;53.084;6.960;2022-08-21T13:25:58;3.47;;;0.80;;
52386;SDS011;38317;53.084;6.960;2022-08-21T13:28:31;2.38;;;0.55;;
52386;SDS011;38317;53.084;6.960;2022-08-21T13:30:59;3.15;;;0.60;;
52386;SDS011;38317;53.084;6.960;2022-08-21T13:33:26;3.08;;;0.57;;
52386;SDS011;38317;53.084;6.960;2022-08-21T13:38:31;2.42;;;0.60;;
52386;SDS011;38317;53.084;6.960;2022-08-21T13:43:49;3.03;;;0.68;;
52386;SDS011;38317;53.084;6.960;2022-08-21T13:46:22;3.22;;;0.80;;
52386;SDS011;38317;53.084;6.960;2022-08-21T13:48:52;3.92;;;0.80;;
52386;SDS011;38317;53.084;6.960;2022-08-21T13:51:19;7.97;;;0.90;;
52386;SDS011;38317;53.084;6.960;2022-08-21T13:53:46;5.50;;;0.90;;
52386;SDS011;38317;53.084;6.960;2022-08-21T13:56:33;2.92;;;0.80;;
52386;SDS011;38317;53.084;6.960;2022-08-21T13:59:10;3.58;;;1.40;;
52386;SDS011;38317;53.084;6.960;2022-08-21T14:01:50;5.07;;;0.90;;
52386;SDS011;38317;53.084;6.960;2022-08-21T14:04:23;3.05;;;0.80;;
52386;SDS011;38317;53.084;6.960;2022-08-21T14:06:51;2.72;;;0.70;;
52386;SDS011;38317;53.084;6.960;2022-08-21T14:14:37;3.47;;;1.10;;
52386;SDS011;38317;53.084;6.960;2022-08-21T14:17:06;3.55;;;0.93;;
52386;SDS011;38317;53.084;6.960;2022-08-21T14:19:38;3.53;;;1.02;;
52386;SDS011;38317;53.084;6.960;2022-08-21T14:22:22;2.88;;;0.70;;
52386;SDS011;38317;53.084;6.960;2022-08-21T14:25:00;3.30;;;0.70;;
52386;SDS011;38317;53.084;6.960;2022-08-21T14:27:31;2.63;;;0.63;;
52386;SDS011;38317;53.084;6.960;2022-08-21T14:30:03;3.67;;;0.85;;
52386;SDS011;38317;53.084;6.960;2022-08-21T14:32:48;3.55;;;0.80;;
52386;SDS011;38317;53.084;6.960;2022-08-21T14:35:15;1.73;;;0.70;;
52386;SDS011;38317;53.084;6.960;2022-08-21T14:37:43;3.15;;;0.93;;
52386;SDS011;38317;53.084;6.960;2022-08-21T14:40:10;2.33;;;0.80;;
52386;SDS011;38317;53.084;6.960;2022-08-21T14:42:37;3.55;;;0.90;;
52386;SDS011;38317;53.084;6.960;2022-08-21T14:45:12;3.38;;;0.70;;
52386;SDS011;38317;53.084;6.960;2022-08-21T14:47:41;3.63;;;0.70;;
52386;SDS011;38317;53.084;6.960;2022-08-21T14:50:08;2.15;;;0.73;;
52386;SDS011;38317;53.084;6.960;2022-08-21T14:52:35;2.80;;;0.70;;
52386;SDS011;38317;53.084;6.960;2022-08-21T14:55:02;2.28;;;0.73;;
52386;SDS011;38317;53.084;6.960;2022-08-21T14:57:30;2.15;;;0.60;;
52386;SDS011;38317;53.084;6.960;2022-08-21T14:59:56;2.80;;;0.60;;
52386;SDS011;38317;53.084;6.960;2022-08-21T15:02:22;3.80;;;0.80;;
52386;SDS011;38317;53.084;6.960;2022-08-21T15:04:48;4.75;;;1.80;;
52386;SDS011;38317;53.084;6.960;2022-08-21T15:07:14;3.10;;;0.95;;
52386;SDS011;38317;53.084;6.960;2022-08-21T15:09:40;3.22;;;0.75;;
52386;SDS011;38317;53.084;6.960;2022-08-21T15:12:06;5.13;;;0.98;;
52386;SDS011;38317;53.084;6.960;2022-08-21T15:14:35;2.63;;;0.73;;
52386;SDS011;38317;53.084;6.960;2022-08-21T15:17:03;5.28;;;0.93;;
52386;SDS011;38317;53.084;6.960;2022-08-21T15:19:31;2.55;;;0.60;;
52386;SDS011;38317;53.084;6.960;2022-08-21T15:21:57;2.33;;;0.68;;
52386;SDS011;38317;53.084;6.960;2022-08-21T15:24:23;1.75;;;0.60;;
52386;SDS011;38317;53.084;6.960;2022-08-21T15:26:50;2.97;;;0.60;;
52386;SDS011;38317;53.084;6.960;2022-08-21T15:29:17;3.58;;;0.85;;
52386;SDS011;38317;53.084;6.960;2022-08-21T15:31:54;3.65;;;0.70;;
52386;SDS011;38317;53.084;6.960;2022-08-21T15:34:23;1.58;;;0.40;;
52386;SDS011;38317;53.084;6.960;2022-08-21T15:36:50;2.15;;;0.47;;
52386;SDS011;38317;53.084;6.960;2022-08-21T15:39:16;1.52;;;0.52;;
52386;SDS011;38317;53.084;6.960;2022-08-21T15:41:43;2.92;;;0.70;;
52386;SDS011;38317;53.084;6.960;2022-08-21T15:44:10;3.97;;;0.70;;
52386;SDS011;38317;53.084;6.960;2022-08-21T15:46:38;1.88;;;0.50;;
52386;SDS011;38317;53.084;6.960;2022-08-21T15:49:05;2.55;;;0.65;;
52386;SDS011;38317;53.084;6.960;2022-08-21T15:51:31;2.05;;;0.60;;
52386;SDS011;38317;53.084;6.960;2022-08-21T15:53:58;4.47;;;0.70;;
52386;SDS011;38317;53.084;6.960;2022-08-21T15:56:28;3.25;;;0.68;;
52386;SDS011;38317;53.084;6.960;2022-08-21T15:59:00;3.75;;;0.50;;
52386;SDS011;38317;53.084;6.960;2022-08-21T16:03:58;4.20;;;0.80;;
52386;SDS011;38317;53.084;6.960;2022-08-21T16:06:24;3.63;;;0.70;;
52386;SDS011;38317;53.084;6.960;2022-08-21T16:08:49;3.50;;;0.85;;
52386;SDS011;38317;53.084;6.960;2022-08-21T16:11:15;2.75;;;0.52;;
52386;SDS011;38317;53.084;6.960;2022-08-21T16:13:43;1.92;;;0.60;;
52386;SDS011;38317;53.084;6.960;2022-08-21T16:16:11;2.05;;;0.43;;
52386;SDS011;38317;53.084;6.960;2022-08-21T16:18:41;3.35;;;0.50;;
52386;SDS011;38317;53.084;6.960;2022-08-21T16:21:07;3.35;;;0.60;;
52386;SDS011;38317;53.084;6.960;2022-08-21T16:23:33;4.03;;;0.50;;
52386;SDS011;38317;53.084;6.960;2022-08-21T16:26:00;2.45;;;0.50;;
52386;SDS011;38317;53.084;6.960;2022-08-21T16:28:28;2.15;;;0.50;;
52386;SDS011;38317;53.084;6.960;2022-08-21T16:30:55;1.95;;;0.63;;
52386;SDS011;38317;53.084;6.960;2022-08-21T16:33:27;3.50;;;0.60;;
52386;SDS011;38317;53.084;6.960;2022-08-21T16:35:55;2.95;;;0.60;;
52386;SDS011;38317;53.084;6.960;2022-08-21T16:38:21;4.57;;;0.82;;
52386;SDS011;38317;53.084;6.960;2022-08-21T16:40:48;3.13;;;0.63;;
52386;SDS011;38317;53.084;6.960;2022-08-21T16:43:14;2.92;;;0.70;;